sensor_id;sensor_type;location;lat;lon;timestamp;P1;durP1;ratioP1;P2;durP2;ratioP2
64595;SDS011;51003;51.628;6.670;2022-10-15T08:13:59;64.40;;;31.33;;
64595;SDS011;51003;51.628;6.670;2022-10-15T08:16:24;63.10;;;29.93;;
64595;SDS011;51003;51.628;6.670;2022-10-15T08:18:50;51.80;;;27.67;;
64595;SDS011;51003;51.628;6.670;2022-10-15T08:21:15;42.63;;;23.23;;
64595;SDS011;51003;51.628;6.670;2022-10-15T08:23:40;39.20;;;23.17;;
64595;SDS011;51003;51.628;6.670;2022-10-15T08:26:06;35.67;;;21.07;;
64595;SDS011;51003;51.628;6.670;2022-10-15T08:43:02;41.57;;;23.30;;
64595;SDS011;51003;51.628;6.670;2022-10-15T08:45:29;35.90;;;21.77;;
64595;SDS011;51003;51.628;6.670;2022-10-15T08:48:04;29.50;;;19.73;;
64595;SDS011;51003;51.628;6.670;2022-10-15T08:50:51;29.90;;;18.30;;
64595;SDS011;51003;51.628;6.670;2022-10-15T08:53:29;29.47;;;19.00;;
64595;SDS011;51003;51.628;6.670;2022-10-15T08:56:01;24.17;;;15.70;;
64595;SDS011;51003;51.628;6.670;2022-10-15T08:58:31;28.00;;;18.47;;
64595;SDS011;51003;51.628;6.670;2022-10-15T09:01:13;22.90;;;16.20;;
64595;SDS011;51003;51.628;6.670;2022-10-15T09:03:55;21.47;;;15.17;;
64595;SDS011;51003;51.628;6.670;2022-10-15T09:06:38;24.43;;;15.63;;
64595;SDS011;51003;51.628;6.670;2022-10-15T09:09:19;20.27;;;14.17;;
64595;SDS011;51003;51.628;6.670;2022-10-15T09:11:55;21.57;;;14.57;;
64595;SDS011;51003;51.628;6.670;2022-10-15T09:14:33;19.27;;;13.27;;
64595;SDS011;51003;51.628;6.670;2022-10-15T09:17:06;20.37;;;13.23;;
64595;SDS011;51003;51.628;6.670;2022-10-15T09:19:37;16.23;;;11.70;;
64595;SDS011;51003;51.628;6.670;2022-10-15T09:22:03;16.07;;;11.20;;
64595;SDS011;51003;51.628;6.670;2022-10-15T09:24:28;16.20;;;10.93;;
64595;SDS011;51003;51.628;6.670;2022-10-15T09:29:46;14.37;;;10.10;;
64595;SDS011;51003;51.628;6.670;2022-10-15T09:35:13;10.20;;;8.37;;
64595;SDS011;51003;51.628;6.670;2022-10-15T09:37:56;10.67;;;8.00;;
64595;SDS011;51003;51.628;6.670;2022-10-15T09:40:32;9.33;;;7.17;;
64595;SDS011;51003;51.628;6.670;2022-10-15T09:43:08;9.20;;;6.53;;
64595;SDS011;51003;51.628;6.670;2022-10-15T09:45:34;8.50;;;6.20;;
64595;SDS011;51003;51.628;6.670;2022-10-15T09:48:00;7.10;;;5.80;;
64595;SDS011;51003;51.628;6.670;2022-10-15T09:50:27;8.90;;;5.50;;
64595;SDS011;51003;51.628;6.670;2022-10-15T09:56:16;4.93;;;4.50;;
64595;SDS011;51003;51.628;6.670;2022-10-15T10:01:24;5.93;;;4.80;;
64595;SDS011;51003;51.628;6.670;2022-10-15T10:04:07;15.23;;;4.43;;
64595;SDS011;51003;51.628;6.670;2022-10-15T10:06:35;8.40;;;4.80;;
64595;SDS011;51003;51.628;6.670;2022-10-15T10:09:10;7.53;;;4.47;;
64595;SDS011;51003;51.628;6.670;2022-10-15T10:11:58;7.67;;;4.63;;
64595;SDS011;51003;51.628;6.670;2022-10-15T10:14:27;7.13;;;4.83;;
64595;SDS011;51003;51.628;6.670;2022-10-15T10:17:04;5.60;;;4.67;;
64595;SDS011;51003;51.628;6.670;2022-10-15T10:22:27;5.47;;;4.37;;
64595;SDS011;51003;51.628;6.670;2022-10-15T10:24:52;11.77;;;5.83;;
64595;SDS011;51003;51.628;6.670;2022-10-15T10:27:26;4.43;;;3.97;;
64595;SDS011;51003;51.628;6.670;2022-10-15T10:29:58;5.53;;;4.40;;
64595;SDS011;51003;51.628;6.670;2022-10-15T10:32:29;5.07;;;4.10;;
64595;SDS011;51003;51.628;6.670;2022-10-15T10:34:56;8.13;;;3.87;;
64595;SDS011;51003;51.628;6.670;2022-10-15T10:37:23;4.10;;;3.63;;
64595;SDS011;51003;51.628;6.670;2022-10-15T10:39:56;9.53;;;3.90;;
64595;SDS011;51003;51.628;6.670;2022-10-15T10:42:29;4.07;;;3.67;;
64595;SDS011;51003;51.628;6.670;2022-10-15T10:47:47;4.07;;;3.67;;
64595;SDS011;51003;51.628;6.670;2022-10-15T10:50:29;4.30;;;3.50;;
64595;SDS011;51003;51.628;6.670;2022-10-15T10:53:19;7.37;;;3.80;;
64595;SDS011;51003;51.628;6.670;2022-10-15T10:55:46;7.07;;;4.50;;
64595;SDS011;51003;51.628;6.670;2022-10-15T10:58:16;4.80;;;4.30;;
64595;SDS011;51003;51.628;6.670;2022-10-15T11:00:45;4.47;;;3.70;;
64595;SDS011;51003;51.628;6.670;2022-10-15T11:05:45;6.00;;;3.67;;
64595;SDS011;51003;51.628;6.670;2022-10-15T11:14:02;4.77;;;3.67;;
64595;SDS011;51003;51.628;6.670;2022-10-15T11:22:14;6.40;;;4.53;;
64595;SDS011;51003;51.628;6.670;2022-10-15T11:24:58;4.90;;;4.23;;
64595;SDS011;51003;51.628;6.670;2022-10-15T11:30:45;5.73;;;4.87;;
64595;SDS011;51003;51.628;6.670;2022-10-15T11:41:21;8.20;;;5.20;;
64595;SDS011;51003;51.628;6.670;2022-10-15T11:49:37;6.30;;;5.50;;
64595;SDS011;51003;51.628;6.670;2022-10-15T11:52:23;6.43;;;5.50;;
64595;SDS011;51003;51.628;6.670;2022-10-15T11:55:10;7.10;;;5.77;;
64595;SDS011;51003;51.628;6.670;2022-10-15T11:57:38;9.27;;;6.73;;
64595;SDS011;51003;51.628;6.670;2022-10-15T12:00:12;7.13;;;5.53;;
64595;SDS011;51003;51.628;6.670;2022-10-15T12:02:44;6.40;;;5.30;;
64595;SDS011;51003;51.628;6.670;2022-10-15T12:05:26;7.20;;;5.23;;
64595;SDS011;51003;51.628;6.670;2022-10-15T12:07:56;5.00;;;4.10;;
64595;SDS011;51003;51.628;6.670;2022-10-15T12:13:08;4.70;;;3.90;;
64595;SDS011;51003;51.628;6.670;2022-10-15T12:16:03;9.03;;;4.73;;
64595;SDS011;51003;51.628;6.670;2022-10-15T12:18:54;9.33;;;5.70;;
64595;SDS011;51003;51.628;6.670;2022-10-15T12:21:28;5.50;;;4.30;;
64595;SDS011;51003;51.628;6.670;2022-10-15T12:24:47;3.30;;;3.10;;
64595;SDS011;51003;51.628;6.670;2022-10-15T12:29:42;3.10;;;2.90;;
64595;SDS011;51003;51.628;6.670;2022-10-15T12:35:03;4.53;;;2.90;;
64595;SDS011;51003;51.628;6.670;2022-10-15T12:37:31;2.80;;;2.60;;
64595;SDS011;51003;51.628;6.670;2022-10-15T12:40:02;4.33;;;3.13;;
64595;SDS011;51003;51.628;6.670;2022-10-15T12:42:30;2.90;;;2.70;;
64595;SDS011;51003;51.628;6.670;2022-10-15T12:44:59;4.03;;;2.70;;
64595;SDS011;51003;51.628;6.670;2022-10-15T12:47:45;4.23;;;3.10;;
64595;SDS011;51003;51.628;6.670;2022-10-15T12:50:33;4.20;;;3.23;;
64595;SDS011;51003;51.628;6.670;2022-10-15T12:53:00;3.43;;;3.10;;
64595;SDS011;51003;51.628;6.670;2022-10-15T12:55:36;2.60;;;2.40;;
64595;SDS011;51003;51.628;6.670;2022-10-15T12:58:03;3.13;;;2.73;;
64595;SDS011;51003;51.628;6.670;2022-10-15T13:00:47;2.53;;;2.37;;
64595;SDS011;51003;51.628;6.670;2022-10-15T13:03:19;2.10;;;2.00;;
64595;SDS011;51003;51.628;6.670;2022-10-15T13:05:46;3.40;;;2.30;;
64595;SDS011;51003;51.628;6.670;2022-10-15T13:08:14;4.70;;;2.60;;
64595;SDS011;51003;51.628;6.670;2022-10-15T13:10:51;2.17;;;1.80;;
64595;SDS011;51003;51.628;6.670;2022-10-15T13:13:19;3.40;;;2.50;;
64595;SDS011;51003;51.628;6.670;2022-10-15T13:15:51;1.67;;;1.57;;
64595;SDS011;51003;51.628;6.670;2022-10-15T13:18:19;1.70;;;1.60;;
64595;SDS011;51003;51.628;6.670;2022-10-15T13:20:45;1.57;;;1.40;;
64595;SDS011;51003;51.628;6.670;2022-10-15T13:23:20;2.23;;;1.60;;
64595;SDS011;51003;51.628;6.670;2022-10-15T13:25:53;3.20;;;2.17;;
64595;SDS011;51003;51.628;6.670;2022-10-15T13:28:36;2.77;;;2.57;;
64595;SDS011;51003;51.628;6.670;2022-10-15T13:31:46;7.07;;;4.67;;
64595;SDS011;51003;51.628;6.670;2022-10-15T13:33:54;5.50;;;4.27;;
64595;SDS011;51003;51.628;6.670;2022-10-15T13:36:31;4.90;;;2.47;;
64595;SDS011;51003;51.628;6.670;2022-10-15T13:38:58;1.90;;;1.80;;
64595;SDS011;51003;51.628;6.670;2022-10-15T13:41:29;1.80;;;1.70;;
64595;SDS011;51003;51.628;6.670;2022-10-15T13:43:57;3.10;;;1.90;;
64595;SDS011;51003;51.628;6.670;2022-10-15T13:46:37;1.60;;;1.50;;
64595;SDS011;51003;51.628;6.670;2022-10-15T13:49:08;2.20;;;2.00;;
64595;SDS011;51003;51.628;6.670;2022-10-15T13:51:42;2.43;;;2.23;;
64595;SDS011;51003;51.628;6.670;2022-10-15T13:54:16;2.47;;;2.37;;
64595;SDS011;51003;51.628;6.670;2022-10-15T13:56:55;1.50;;;1.40;;
64595;SDS011;51003;51.628;6.670;2022-10-15T13:59:23;1.83;;;1.73;;
64595;SDS011;51003;51.628;6.670;2022-10-15T14:01:52;1.70;;;1.60;;
64595;SDS011;51003;51.628;6.670;2022-10-15T14:04:24;1.77;;;1.67;;
64595;SDS011;51003;51.628;6.670;2022-10-15T14:06:54;3.33;;;2.10;;
64595;SDS011;51003;51.628;6.670;2022-10-15T14:09:36;2.07;;;1.97;;
64595;SDS011;51003;51.628;6.670;2022-10-15T14:12:06;2.37;;;1.57;;
